Accueil
METAR-TAF:

METAR-TAF

Aéroports :

Sabadell, Espagne

latitude: 41-31N, longitude: 002-06E, altitude: 250 m

Observation

Le bulletin a été fait il y a 38 minutes, à 13:00 UTC
Vent 9 kt de ouest/sud-ouest, variant entre sud/sud-ouest et ouest
Température 20°C
Humidité 46%
Pression 1023 hPa
Visibilité 10 km ou plus
Quelques nuages à une hauteur de 3000 ft

METAR: LELL 221300Z 24009KT 200V280 9999 FEW030 20/08 Q1023

Heure: 15:38 (13:38 UTC)

Prévision

Le bulletin a été fait il y a 5 heures et 38 minutes, à 08:00 UTC
Prévision valable du 22 à 09 UTC au 23 à 09 UTC
Vent 10 kt de ouest
Visibilité 10 km ou plus
Nuages épars à une hauteur de 2500 ft
Evoluant progressivement
du 22 à 13 UTC au 22 à 15 UTC
Vent 4 kt de direction variable

TAF: LELL 220800Z 2209/2309 28010KT 9999 SCT025 TX22/2213Z TN10/2306Z BECMG 2213/2215 VRB04KT

Observations et prévisions météorologiques de plus de 4000 aéroports (messages METAR et TAF).

Les stations disponibles sont représentées par des disques jaunes et rouges sur la carte.

Passer la souris dessus pour voir le nom de la station.

Cliquer dessus pour voir les observations et prévisions météorologiques.

Pour changer de carte: cliquez sur les boutons verts avec une croix noire pour zoomer, sur le bouton vert avec un tiret pour effectuer un zoom arrière, ou sur les flèches vertes pour les cartes adjacentes.


METAR-TAF: